Terminal Aerodrome Forecast
Issued by NWS Louisville, KY

Home | Current Version | Previous Version | Text Only | Print | Product List | Glossary On
Versions: 1 2 3 4 5 6 7 8 9 10 11 12 13 14 15 16 17 18 19
641
FTUS43 KLMK 272020 AAA
TAFSDF
TAF AMD
KSDF 272020Z 2720/2824 16009KT P6SM VCTS SCT040CB BKN100
      TEMPO 2721/2801 VRB06G25KT 4SM TSRA OVC025CB
     FM280300 17005KT P6SM SHRA OVC050
     FM280600 21004KT P6SM OVC040
     FM280900 VRB04KT P6SM VCSH BKN015=

USA.gov is the U.S. government's official web portal to all federal, state and local government web resources and services.